KMGM/MGM METAR and TAF weather

Enter ICAO airport designator
Station Type Date Time Source
KMGM METAR 2019/06/16 19:53 UTC NOAA

KMGM 161953Z 15007KT 10SM CLR 33/21 A2997 RMK AO2 SLP146 T03330211


Station Type Date Time Source
KMGM Decoded METAR 2019/06/16 19:53 UTC NOAA

MONTGOMERY DANNELLY FIELD, AL, United States (KMGM) 32-18N 86-24W 63M
Jun 16, 2019 - 03:53 PM EDT / 2019.06.16 1953 UTC
Wind: from the SSE (150 degrees) at 8 MPH (7 KT):0
Visibility: 10 mile(s):0
Sky conditions: clear
Temperature: 91.9 F (33.3 C)
Heat index: 97.3 F (36.3 C):1
Dew Point: 70.0 F (21.1 C)
Relative Humidity: 48%
Pressure (altimeter): 29.97 in. Hg (1014 hPa)
ob: KMGM 161953Z 15007KT 10SM CLR 33/21 A2997 RMK AO2 SLP146 T03330211
cycle: 20

Station Type Date Time Source
KMGM TAF 2019/06/16 18:45 UTC NOAA

TAF KMGM 161740Z 1618/1718 17006KT P6SM BKN045
FM170000 16002KT P6SM SCT250

Example: see airport list